Time;durP1;ratioP1;P1;durP2;ratioP2;P2;SDS_P1;SDS_P2;PMS_P1;PMS_P2;Temp;Humidity;BMP_temperature;BMP_pressure;BME280_temperature;BME280_humidity;BME280_pressure;Samples;Min_cycle;Max_cycle;Signal;HPM_P1;HPM_P2
2021/11/20 00:02:01;;;;;;;23.70;12.65;;;7.70;99.90;;;;;;5013872;28;20483;-78
2021/11/20 00:04:27;;;;;;;19.00;11.15;;;7.70;99.90;;;;;;4996060;28;20026;-76
2021/11/20 00:06:55;;;;;;;20.55;12.52;;;7.70;99.90;;;;;;4996105;28;20026;-77
2021/11/20 00:09:23;;;;;;;19.52;12.32;;;7.80;99.90;;;;;;5013672;28;20100;-77
2021/11/20 00:11:52;;;;;;;23.02;11.82;;;7.80;99.90;;;;;;5013694;28;20073;-78
2021/11/20 00:14:18;;;;;;;21.05;12.30;;;7.70;99.90;;;;;;5013687;28;20026;-77
2021/11/20 00:16:46;;;;;;;22.60;12.70;;;7.80;99.90;;;;;;5013649;28;20096;-78
2021/11/20 00:19:13;;;;;;;26.85;12.60;;;7.80;99.90;;;;;;5013462;28;20096;-77
2021/11/20 00:21:47;;;;;;;22.15;13.32;;;7.80;99.90;;;;;;5013623;28;20022;-77
2021/11/20 00:24:29;;;;;;;25.67;13.10;;;7.70;99.90;;;;;;5013525;28;20034;-77
2021/11/20 00:26:56;;;;;;;19.58;12.20;;;7.80;99.90;;;;;;5013584;28;20113;-77
2021/11/20 00:29:27;;;;;;;21.60;12.13;;;7.70;99.90;;;;;;5013525;28;20068;-77
2021/11/20 00:32:01;;;;;;;24.02;13.23;;;7.80;99.90;;;;;;5013199;28;20155;-77
2021/11/20 00:34:30;;;;;;;15.15;9.82;;;7.70;99.90;;;;;;4995110;28;20034;-77
2021/11/20 00:36:57;;;;;;;14.75;10.32;;;7.80;99.90;;;;;;5013372;28;20490;-77
2021/11/20 00:39:26;;;;;;;15.25;10.35;;;7.80;99.90;;;;;;4995562;28;20033;-78
2021/11/20 00:41:53;;;;;;;19.88;10.48;;;7.80;99.90;;;;;;4995700;28;20022;-77
2021/11/20 00:44:20;;;;;;;16.80;9.80;;;7.80;99.90;;;;;;5013310;28;20030;-77
2021/11/20 00:46:47;;;;;;;17.00;10.95;;;7.80;99.90;;;;;;4995625;28;20018;-77
2021/11/20 00:49:13;;;;;;;17.15;10.60;;;7.80;99.90;;;;;;5013152;28;20113;-77
2021/11/20 00:51:40;;;;;;;17.00;10.13;;;7.80;99.90;;;;;;5013137;28;20029;-77
2021/11/20 00:54:06;;;;;;;16.83;10.07;;;7.80;99.90;;;;;;5013109;28;20022;-77
2021/11/20 00:56:33;;;;;;;12.55;8.95;;;7.90;99.90;;;;;;4995097;28;20348;-77
2021/11/20 00:58:59;;;;;;;14.13;9.25;;;7.80;99.90;;;;;;5012301;28;20033;-77
2021/11/20 01:01:34;;;;;;;15.80;9.85;;;7.80;99.90;;;;;;5003424;28;20506;-77
2021/11/20 01:04:01;;;;;;;18.17;9.73;;;7.80;99.90;;;;;;5013063;28;20037;-77
2021/11/20 01:06:26;;;;;;;14.95;9.30;;;7.80;99.90;;;;;;4995399;28;20077;-77
2021/11/20 01:08:53;;;;;;;16.75;9.15;;;7.90;99.90;;;;;;4995228;28;20022;-77
2021/11/20 01:11:22;;;;;;;14.38;9.30;;;7.80;99.90;;;;;;5013031;28;20455;-77
2021/11/20 01:13:49;;;;;;;14.35;8.30;;;7.90;99.90;;;;;;5012958;28;20475;-77
2021/11/20 01:16:16;;;;;;;11.50;7.38;;;7.80;99.90;;;;;;5011761;28;20387;-77
2021/11/20 01:18:43;;;;;;;14.82;8.80;;;7.80;99.90;;;;;;5011451;28;20018;-78
2021/11/20 01:21:09;;;;;;;14.98;9.13;;;7.80;99.90;;;;;;5012793;28;20044;-77
2021/11/20 01:23:36;;;;;;;18.80;9.23;;;7.80;99.90;;;;;;5012755;28;20101;-78
2021/11/20 01:26:03;;;;;;;14.15;8.98;;;7.80;99.90;;;;;;5012819;28;20109;-78
2021/11/20 01:28:33;;;;;;;19.05;7.88;;;7.80;99.90;;;;;;5012918;28;20026;-78
2021/11/20 01:31:00;;;;;;;17.65;8.05;;;7.90;99.90;;;;;;5011560;28;20040;-78
2021/11/20 01:33:26;;;;;;;16.10;8.02;;;7.90;99.90;;;;;;5011545;28;20037;-78
2021/11/20 01:35:52;;;;;;;15.70;9.00;;;7.80;99.90;;;;;;5013173;28;20069;-78
2021/11/20 01:38:19;;;;;;;15.02;8.00;;;7.80;99.90;;;;;;5012763;28;20415;-77
2021/11/20 01:40:46;;;;;;;16.77;8.07;;;7.80;99.90;;;;;;5012636;28;20505;-78
2021/11/20 01:43:13;;;;;;;11.57;7.90;;;7.90;99.90;;;;;;4997136;28;20571;-78
2021/11/20 01:45:47;;;;;;;13.43;7.85;;;7.90;99.90;;;;;;5016411;28;20032;-77
2021/11/20 01:48:47;;;;;;;13.90;7.32;;;7.90;99.90;;;;;;5016451;28;20441;-77
2021/11/20 01:51:23;;;;;;;11.73;6.72;;;7.90;99.90;;;;;;5016413;28;20022;-77
2021/11/20 01:54:07;;;;;;;12.15;7.68;;;7.90;99.90;;;;;;5016272;28;20046;-77
2021/11/20 01:57:00;;;;;;;12.80;6.53;;;7.90;99.90;;;;;;5016606;28;20021;-78
2021/11/20 01:59:41;;;;;;;11.52;7.15;;;7.90;99.90;;;;;;4988500;28;20046;-77
2021/11/20 02:02:30;;;;;;;18.20;7.03;;;7.90;99.90;;;;;;4998619;28;20034;-77
2021/11/20 02:05:11;;;;;;;13.88;6.85;;;7.90;99.90;;;;;;5016134;28;20108;-78
2021/11/20 02:07:41;;;;;;;16.92;8.32;;;7.90;99.90;;;;;;4998383;28;20108;-77
2021/11/20 02:10:11;;;;;;;16.15;7.03;;;7.90;99.90;;;;;;5015962;28;20437;-78
2021/11/20 02:12:49;;;;;;;14.30;7.35;;;7.90;99.90;;;;;;5016021;28;20120;-78
2021/11/20 02:15:30;;;;;;;12.02;7.32;;;7.90;99.90;;;;;;4998333;28;20026;-77
2021/11/20 02:17:58;;;;;;;14.18;7.65;;;8.00;99.90;;;;;;5015896;28;20421;-77
2021/11/20 02:20:33;;;;;;;12.43;7.00;;;8.00;99.90;;;;;;5015737;28;20030;-77
2021/11/20 02:22:59;;;;;;;10.50;6.78;;;8.00;99.90;;;;;;5015782;28;20026;-77
2021/11/20 02:25:24;;;;;;;12.93;7.35;;;8.00;99.90;;;;;;5015735;28;20483;-77
2021/11/20 02:27:54;;;;;;;11.20;6.82;;;8.00;99.90;;;;;;4998109;28;20022;-77
2021/11/20 02:30:52;;;;;;;14.30;6.85;;;8.00;99.90;;;;;;5015587;28;20033;-78
2021/11/20 02:33:28;;;;;;;12.05;6.40;;;8.00;99.90;;;;;;4985780;28;20037;-77
2021/11/20 02:35:58;;;;;;;11.77;7.38;;;8.00;99.90;;;;;;5015190;28;20034;-78
2021/11/20 02:38:27;;;;;;;11.73;6.93;;;8.00;99.90;;;;;;5015473;28;20056;-78
2021/11/20 02:40:55;;;;;;;11.32;8.13;;;8.00;99.90;;;;;;5015348;28;20495;-78
2021/11/20 02:43:21;;;;;;;14.18;7.35;;;8.00;99.90;;;;;;4997861;28;20065;-78
2021/11/20 02:45:50;;;;;;;13.10;7.03;;;8.00;99.90;;;;;;5015272;28;20030;-78
2021/11/20 02:48:16;;;;;;;12.25;7.22;;;8.00;99.90;;;;;;5015611;28;20029;-77
2021/11/20 02:50:53;;;;;;;19.67;7.15;;;8.00;99.90;;;;;;5015180;28;20029;-78
2021/11/20 02:53:28;;;;;;;12.65;6.28;;;8.00;99.90;;;;;;5015212;28;20033;-78
2021/11/20 02:55:54;;;;;;;12.15;7.15;;;8.00;99.90;;;;;;5015170;28;20033;-78
2021/11/20 02:58:23;;;;;;;17.35;8.10;;;8.00;99.90;;;;;;5015132;28;20479;-78
2021/11/20 03:01:14;;;;;;;11.35;6.70;;;8.00;99.90;;;;;;5014944;28;20038;-78
2021/11/20 03:03:41;;;;;;;17.48;7.35;;;8.00;99.90;;;;;;5004326;28;20041;-78
2021/11/20 03:06:07;;;;;;;13.10;7.85;;;8.00;99.90;;;;;;4997487;28;20026;-78
2021/11/20 03:08:33;;;;;;;13.70;6.85;;;8.00;99.90;;;;;;4997192;28;20014;-78
2021/11/20 03:10:59;;;;;;;11.57;6.47;;;8.00;99.90;;;;;;5014869;28;20030;-78
2021/11/20 03:13:25;;;;;;;12.10;7.57;;;8.00;99.90;;;;;;5014852;28;20026;-77
2021/11/20 03:15:51;;;;;;;17.45;7.90;;;8.00;99.90;;;;;;5014757;28;20033;-78
2021/11/20 03:18:16;;;;;;;10.48;6.75;;;8.00;99.90;;;;;;5014816;28;20026;-78
2021/11/20 03:20:45;;;;;;;11.85;7.45;;;8.00;99.90;;;;;;5014501;28;20494;-78
2021/11/20 03:23:24;;;;;;;11.25;7.68;;;8.00;99.90;;;;;;4997080;28;20030;-77
2021/11/20 03:25:50;;;;;;;13.30;7.30;;;8.00;99.90;;;;;;5014357;28;20037;-78
2021/11/20 03:28:17;;;;;;;10.52;7.18;;;7.90;99.90;;;;;;5014340;28;20029;-78
2021/11/20 03:30:43;;;;;;;11.55;7.55;;;7.90;99.90;;;;;;5014087;28;20025;-78
2021/11/20 03:33:09;;;;;;;12.10;8.13;;;7.80;99.90;;;;;;4996504;28;20081;-78
2021/11/20 03:35:35;;;;;;;11.65;7.72;;;7.80;99.90;;;;;;4996387;28;20022;-78
2021/11/20 03:38:02;;;;;;;13.73;7.97;;;7.80;99.90;;;;;;5014034;28;20018;-77
2021/11/20 03:40:28;;;;;;;11.05;7.30;;;7.70;99.90;;;;;;5014055;28;20038;-78
2021/11/20 03:42:54;;;;;;;15.88;8.18;;;7.70;99.90;;;;;;5014292;28;20097;-78
2021/11/20 03:45:22;;;;;;;13.32;8.25;;;7.70;99.90;;;;;;5014266;28;20021;-78
2021/11/20 03:47:48;;;;;;;11.63;8.18;;;7.70;99.90;;;;;;4996563;28;20099;-79
2021/11/20 03:50:14;;;;;;;12.55;8.15;;;7.70;99.90;;;;;;5014124;28;20053;-78
2021/11/20 03:52:42;;;;;;;14.73;7.78;;;7.60;99.90;;;;;;5014065;28;20123;-78
2021/11/20 03:55:13;;;;;;;16.45;8.20;;;7.60;99.90;;;;;;4996435;28;20067;-78
2021/11/20 03:57:39;;;;;;;12.13;8.32;;;7.60;99.90;;;;;;5014100;28;20451;-78
2021/11/20 04:00:07;;;;;;;15.40;9.00;;;7.50;99.90;;;;;;5013914;28;20103;-78
2021/11/20 04:02:33;;;;;;;16.88;9.25;;;7.50;99.90;;;;;;4996209;28;20025;-78
2021/11/20 04:04:58;;;;;;;17.30;9.05;;;7.50;99.90;;;;;;5013431;28;20026;-78
2021/11/20 04:07:24;;;;;;;13.32;9.13;;;7.50;99.90;;;;;;5013712;28;20105;-78
2021/11/20 04:09:49;;;;;;;18.92;10.63;;;7.50;99.90;;;;;;5013802;28;20045;-78
2021/11/20 04:12:15;;;;;;;14.75;9.05;;;7.40;99.90;;;;;;4996322;28;20060;-78
2021/11/20 04:14:41;;;;;;;18.52;9.48;;;7.40;99.90;;;;;;4996124;28;20566;-78
2021/11/20 04:17:06;;;;;;;17.13;8.85;;;7.40;99.90;;;;;;5013732;28;20387;-78
2021/11/20 04:19:32;;;;;;;18.45;9.23;;;7.40;99.90;;;;;;5013494;28;20113;-78
2021/11/20 04:21:58;;;;;;;16.63;9.68;;;7.30;99.90;;;;;;5013621;28;20022;-77
2021/11/20 04:24:24;;;;;;;17.80;11.23;;;7.40;99.90;;;;;;4995737;28;20466;-78
2021/11/20 04:26:50;;;;;;;16.63;10.35;;;7.40;99.90;;;;;;4995951;28;20080;-78
2021/11/20 04:29:16;;;;;;;19.25;9.82;;;7.30;99.90;;;;;;5013537;28;20054;-78
2021/11/20 04:31:42;;;;;;;15.90;9.98;;;7.40;99.90;;;;;;5013483;28;20026;-78
2021/11/20 04:34:08;;;;;;;17.52;10.18;;;7.30;99.90;;;;;;5013209;28;20026;-78
2021/11/20 04:36:34;;;;;;;16.02;9.77;;;7.40;99.90;;;;;;5013356;28;20383;-78
2021/11/20 04:39:00;;;;;;;18.83;11.77;;;7.40;99.90;;;;;;5013144;28;20030;-78
2021/11/20 04:41:26;;;;;;;16.60;9.60;;;7.40;99.90;;;;;;5013323;28;20033;-77
2021/11/20 04:43:52;;;;;;;20.55;10.23;;;7.40;99.90;;;;;;5013287;28;20026;-78
2021/11/20 04:46:22;;;;;;;15.18;9.60;;;7.40;99.90;;;;;;5013352;28;20408;-78
2021/11/20 04:48:49;;;;;;;17.27;10.43;;;7.40;99.90;;;;;;5013444;28;20021;-78
2021/11/20 04:51:15;;;;;;;20.10;10.32;;;7.40;99.90;;;;;;5013289;28;20022;-77
2021/11/20 04:53:43;;;;;;;16.15;9.77;;;7.40;99.90;;;;;;5013087;28;20030;-78
2021/11/20 04:56:11;;;;;;;17.20;10.50;;;7.40;99.90;;;;;;5012995;28;20033;-78
2021/11/20 04:58:37;;;;;;;20.02;10.95;;;7.40;99.90;;;;;;4995476;28;20022;-78
2021/11/20 05:01:05;;;;;;;17.30;10.98;;;7.40;99.90;;;;;;5012924;28;20383;-78
2021/11/20 05:03:31;;;;;;;15.50;10.43;;;7.40;99.90;;;;;;5012913;28;20101;-78
2021/11/20 05:05:58;;;;;;;14.98;10.05;;;7.40;99.90;;;;;;5013055;28;20064;-77
2021/11/20 05:08:25;;;;;;;18.80;10.95;;;7.40;99.90;;;;;;5012786;28;20026;-78
2021/11/20 05:10:52;;;;;;;15.02;10.35;;;7.40;99.90;;;;;;5012956;28;20030;-78
2021/11/20 05:13:19;;;;;;;20.48;11.27;;;7.30;99.90;;;;;;5013084;28;20022;-78
2021/11/20 05:15:47;;;;;;;18.58;11.13;;;7.40;99.90;;;;;;5012915;28;20411;-78
2021/11/20 05:18:13;;;;;;;22.40;12.60;;;7.40;99.90;;;;;;5015160;28;20032;-78
2021/11/20 05:20:39;;;;;;;18.70;11.90;;;7.30;99.90;;;;;;5016871;28;20044;-78
2021/11/20 05:23:05;;;;;;;21.30;12.68;;;7.40;99.90;;;;;;5016955;28;20471;-78
2021/11/20 05:25:32;;;;;;;21.38;12.30;;;7.40;99.90;;;;;;4999275;28;20116;-78
2021/11/20 05:27:58;;;;;;;17.77;11.30;;;7.40;99.90;;;;;;5016814;28;20018;-78
2021/11/20 05:30:29;;;;;;;22.00;12.50;;;7.40;99.90;;;;;;5016764;28;20026;-78
2021/11/20 05:32:57;;;;;;;19.80;12.75;;;7.40;99.90;;;;;;5016817;28;20030;-78
2021/11/20 05:35:26;;;;;;;19.45;12.63;;;7.40;99.90;;;;;;5016202;28;20126;-78
2021/11/20 05:37:52;;;;;;;19.17;12.32;;;7.40;99.90;;;;;;5015311;28;20022;-78
2021/11/20 05:40:19;;;;;;;17.08;11.18;;;7.50;99.90;;;;;;5015111;28;20443;-78
2021/11/20 05:42:49;;;;;;;18.88;11.55;;;7.50;99.90;;;;;;5015297;28;20451;-78
2021/11/20 05:45:16;;;;;;;18.38;12.07;;;7.50;99.90;;;;;;4997552;28;20550;-78
2021/11/20 05:47:41;;;;;;;17.15;12.55;;;7.50;99.90;;;;;;5015123;28;20018;-78
2021/11/20 05:50:09;;;;;;;21.63;12.63;;;7.50;99.90;;;;;;5015129;28;20537;-77
2021/11/20 05:52:34;;;;;;;22.65;14.95;;;7.50;99.90;;;;;;4997378;28;20037;-78
2021/11/20 05:55:00;;;;;;;19.75;13.05;;;7.50;99.90;;;;;;5014975;28;20030;-78
2021/11/20 05:57:26;;;;;;;20.70;12.48;;;7.50;99.90;;;;;;5015085;28;20029;-78
2021/11/20 05:59:52;;;;;;;25.63;14.15;;;7.50;99.90;;;;;;5014848;28;20034;-78
2021/11/20 06:02:19;;;;;;;19.73;12.23;;;7.50;99.90;;;;;;4997419;28;20505;-78
2021/11/20 06:04:45;;;;;;;17.88;11.82;;;7.50;99.90;;;;;;4997314;28;20029;-77
2021/11/20 06:07:11;;;;;;;22.83;12.93;;;7.50;99.90;;;;;;5014939;28;20025;-78
2021/11/20 06:09:41;;;;;;;23.85;12.75;;;7.50;99.90;;;;;;5014674;28;20069;-78
2021/11/20 06:12:09;;;;;;;19.92;13.00;;;7.50;99.90;;;;;;5014868;28;20025;-78
2021/11/20 06:14:35;;;;;;;20.17;11.80;;;7.50;99.90;;;;;;5009603;28;20022;-77
2021/11/20 06:17:01;;;;;;;21.65;13.30;;;7.50;99.90;;;;;;5014565;28;20464;-78
2021/11/20 06:19:27;;;;;;;21.38;11.95;;;7.50;99.90;;;;;;5011662;28;20034;-78
2021/11/20 06:21:53;;;;;;;20.17;12.60;;;7.50;99.90;;;;;;4994356;28;20026;-78
2021/11/20 06:24:20;;;;;;;20.20;12.80;;;7.50;99.90;;;;;;4993984;28;20114;-78
2021/11/20 06:26:46;;;;;;;23.40;13.80;;;7.60;99.90;;;;;;4994323;28;20026;-78
2021/11/20 06:29:13;;;;;;;22.17;12.50;;;7.60;99.90;;;;;;4992551;28;20026;-78
2021/11/20 06:31:39;;;;;;;21.17;11.23;;;7.60;99.90;;;;;;4980773;28;20940;-78
2021/11/20 06:34:06;;;;;;;20.15;12.68;;;7.60;99.90;;;;;;4952173;28;1248516;-77
2021/11/20 06:36:32;;;;;;;22.00;13.15;;;7.60;99.90;;;;;;5014561;28;20116;-78
2021/11/20 06:38:57;;;;;;;21.80;12.73;;;7.70;99.90;;;;;;4996953;28;20014;-77
2021/11/20 06:41:23;;;;;;;18.75;12.05;;;7.70;99.90;;;;;;4997341;28;20100;-78
2021/11/20 06:43:49;;;;;;;17.58;11.07;;;7.70;99.90;;;;;;5014115;28;20030;-77
2021/11/20 06:46:16;;;;;;;24.50;12.43;;;7.70;99.90;;;;;;5014691;28;20553;-78
2021/11/20 06:48:43;;;;;;;17.58;11.82;;;7.70;99.90;;;;;;5014019;28;20509;-78
2021/11/20 06:51:09;;;;;;;17.48;9.98;;;7.70;99.90;;;;;;5013887;28;20104;-78
2021/11/20 06:53:37;;;;;;;16.75;10.32;;;7.80;99.90;;;;;;5001858;28;20386;-78
2021/11/20 06:56:04;;;;;;;15.90;10.65;;;7.80;99.90;;;;;;4997891;28;20037;-78
2021/11/20 07:01:07;;;;;;;15.02;10.73;;;7.90;99.90;;;;;;5016383;28;20034;-78
2021/11/20 07:03:36;;;;;;;17.85;9.70;;;8.00;99.90;;;;;;5013780;28;20032;-78
2021/11/20 07:06:17;;;;;;;12.52;8.88;;;8.00;99.90;;;;;;5013798;28;20502;-78
2021/11/20 07:08:44;;;;;;;13.95;9.25;;;8.00;99.90;;;;;;4994283;28;20101;-78
2021/11/20 07:11:09;;;;;;;13.23;8.63;;;8.10;99.90;;;;;;5016283;28;20076;-78
2021/11/20 07:13:35;;;;;;;16.25;10.30;;;8.10;99.90;;;;;;5013370;28;20046;-78
2021/11/20 07:16:02;;;;;;;14.73;9.18;;;8.10;99.90;;;;;;4995937;28;20026;-78
2021/11/20 07:18:28;;;;;;;16.17;9.70;;;8.10;99.90;;;;;;4996671;28;20056;-78
2021/11/20 07:20:53;;;;;;;16.25;10.32;;;8.10;99.90;;;;;;5013691;28;20062;-78
2021/11/20 07:23:19;;;;;;;14.43;9.82;;;8.10;99.90;;;;;;5014700;28;20025;-78
2021/11/20 07:25:45;;;;;;;18.05;10.18;;;8.20;99.90;;;;;;4996049;28;20485;-78
2021/11/20 07:28:11;;;;;;;22.02;10.57;;;8.20;99.90;;;;;;4995504;28;20384;-78
2021/11/20 07:30:39;;;;;;;17.80;11.15;;;8.20;99.90;;;;;;5013332;28;20053;-78
2021/11/20 07:33:06;;;;;;;15.07;9.60;;;8.20;99.90;;;;;;5023098;28;20735;-78
2021/11/20 07:35:34;;;;;;;17.65;10.43;;;8.20;99.90;;;;;;5015719;28;20025;-78
2021/11/20 07:38:02;;;;;;;16.73;10.02;;;8.20;99.90;;;;;;5015488;28;20045;-78
2021/11/20 07:40:31;;;;;;;14.65;10.02;;;8.20;99.90;;;;;;5016125;28;20033;-77
2021/11/20 07:42:57;;;;;;;16.45;10.20;;;8.20;99.90;;;;;;5010964;28;20033;-78
2021/11/20 07:45:23;;;;;;;19.23;11.55;;;8.30;99.90;;;;;;5012006;28;20025;-79
2021/11/20 07:47:48;;;;;;;24.73;15.15;;;8.30;99.90;;;;;;5012067;28;20037;-78
2021/11/20 07:50:16;;;;;;;20.00;10.18;;;8.30;99.90;;;;;;5011838;28;20029;-78
2021/11/20 07:52:43;;;;;;;16.75;11.07;;;8.30;99.90;;;;;;5012001;28;20040;-79
2021/11/20 07:55:11;;;;;;;16.92;10.88;;;8.40;99.90;;;;;;5013337;28;20076;-78
2021/11/20 07:57:38;;;;;;;19.02;11.30;;;8.40;99.90;;;;;;5013132;28;20116;-78
2021/11/20 08:00:14;;;;;;;19.33;10.77;;;8.40;99.90;;;;;;5012935;28;20084;-78
2021/11/20 08:02:40;;;;;;;19.65;10.82;;;8.40;99.90;;;;;;4995469;28;20045;-78
2021/11/20 08:05:06;;;;;;;19.83;12.43;;;8.40;99.90;;;;;;5011683;28;20022;-78
2021/11/20 08:07:32;;;;;;;20.50;10.18;;;8.50;99.90;;;;;;5012190;28;20391;-78
2021/11/20 08:09:58;;;;;;;17.25;10.40;;;8.50;99.90;;;;;;5011669;28;20053;-78
2021/11/20 08:12:23;;;;;;;18.08;10.43;;;8.50;99.90;;;;;;5011616;28;20033;-78
2021/11/20 08:14:49;;;;;;;23.80;12.80;;;8.60;99.90;;;;;;5012206;28;20029;-77
2021/11/20 08:17:15;;;;;;;19.58;10.40;;;8.60;99.90;;;;;;5013029;28;20042;-78
2021/11/20 08:19:41;;;;;;;18.88;11.05;;;8.60;99.90;;;;;;5013017;28;20030;-78
2021/11/20 08:22:06;;;;;;;17.63;10.93;;;8.60;99.90;;;;;;5012078;28;20030;-77
2021/11/20 08:24:32;;;;;;;23.92;12.68;;;8.70;99.90;;;;;;5012918;28;20463;-78
2021/11/20 08:26:59;;;;;;;16.80;10.15;;;8.70;99.90;;;;;;5012267;28;20038;-78
2021/11/20 08:29:29;;;;;;;17.77;10.75;;;8.80;99.90;;;;;;4995064;28;20061;-78
2021/11/20 08:31:56;;;;;;;16.95;10.43;;;8.80;99.90;;;;;;5012695;28;20033;-79
2021/11/20 08:34:23;;;;;;;17.85;9.13;;;8.80;99.90;;;;;;5001495;28;20034;-79
2021/11/20 08:36:48;;;;;;;20.52;11.40;;;8.80;99.90;;;;;;4994134;28;20135;-79
2021/11/20 08:39:15;;;;;;;19.38;10.85;;;8.80;99.90;;;;;;5011512;28;20034;-80
2021/11/20 08:41:44;;;;;;;16.73;10.38;;;8.90;99.90;;;;;;4993444;28;20042;-78
2021/11/20 08:44:10;;;;;;;19.13;11.07;;;8.90;99.90;;;;;;5011687;28;20025;-79
2021/11/20 08:46:36;;;;;;;21.38;11.00;;;9.00;99.90;;;;;;4994244;28;20113;-78
2021/11/20 08:49:04;;;;;;;17.27;10.45;;;9.00;99.90;;;;;;4994294;28;20030;-78
2021/11/20 08:51:30;;;;;;;16.15;10.57;;;9.10;99.90;;;;;;5011599;28;20068;-79
2021/11/20 08:53:56;;;;;;;22.45;12.50;;;9.10;99.90;;;;;;5011400;28;20120;-78
2021/11/20 08:56:23;;;;;;;14.90;8.73;;;9.10;99.90;;;;;;5009270;28;20068;-78
2021/11/20 08:58:49;;;;;;;18.15;8.82;;;9.20;99.90;;;;;;5011240;28;20072;-79
2021/11/20 09:01:30;;;;;;;15.30;9.93;;;9.30;99.90;;;;;;5010861;28;20087;-79
2021/11/20 09:04:05;;;;;;;13.25;8.55;;;9.30;99.90;;;;;;5010397;28;20033;-78
2021/11/20 09:06:44;;;;;;;13.00;8.73;;;9.30;99.90;;;;;;5008583;28;20053;-79
2021/11/20 09:09:16;;;;;;;13.85;8.05;;;9.40;99.90;;;;;;4992543;28;20028;-78
2021/11/20 09:11:44;;;;;;;12.75;8.80;;;9.50;99.90;;;;;;5011868;28;20113;-78
2021/11/20 09:14:28;;;;;;;13.18;7.20;;;9.50;99.90;;;;;;4995836;28;20026;-79
2021/11/20 09:16:58;;;;;;;9.98;7.05;;;9.60;99.90;;;;;;4994466;28;20037;-79
2021/11/20 09:19:27;;;;;;;11.80;7.88;;;9.60;99.90;;;;;;4995358;28;20483;-80
2021/11/20 09:21:55;;;;;;;11.05;6.75;;;9.60;99.90;;;;;;4994425;28;20038;-79
2021/11/20 09:24:21;;;;;;;9.85;6.38;;;9.70;99.90;;;;;;5011147;28;20030;-78
2021/11/20 09:26:46;;;;;;;12.63;7.00;;;9.60;99.90;;;;;;5010453;28;20030;-78
2021/11/20 09:29:14;;;;;;;11.55;6.50;;;9.70;99.90;;;;;;5011461;28;20022;-78
2021/11/20 09:31:42;;;;;;;7.55;6.15;;;9.70;99.90;;;;;;5011286;28;20129;-78
2021/11/20 09:34:09;;;;;;;13.30;6.72;;;9.70;99.90;;;;;;5011060;28;20096;-78
2021/11/20 09:36:35;;;;;;;9.82;7.07;;;9.70;99.90;;;;;;5011545;28;20045;-78
2021/11/20 09:39:04;;;;;;;8.75;6.25;;;9.80;99.90;;;;;;5010638;28;20105;-78
2021/11/20 09:41:47;;;;;;;8.85;6.00;;;9.80;99.90;;;;;;5010726;28;20041;-79
2021/11/20 09:44:14;;;;;;;8.73;6.03;;;9.70;99.90;;;;;;5011507;28;20053;-78
2021/11/20 09:46:45;;;;;;;13.43;6.50;;;9.80;99.90;;;;;;5011202;28;20053;-79
2021/11/20 09:49:29;;;;;;;11.73;6.13;;;9.80;99.90;;;;;;5011377;28;20018;-79
2021/11/20 09:51:56;;;;;;;9.60;6.30;;;9.80;99.90;;;;;;5011110;28;20037;-79
2021/11/20 09:54:28;;;;;;;9.48;6.45;;;9.90;99.90;;;;;;4993872;28;20104;-78
2021/11/20 09:57:05;;;;;;;9.68;6.07;;;9.90;99.90;;;;;;5009340;28;20038;-79
2021/11/20 09:59:51;;;;;;;9.85;5.85;;;9.90;99.90;;;;;;5010988;28;20030;-78
2021/11/20 10:02:50;;;;;;;9.15;6.55;;;9.90;99.90;;;;;;5004749;28;20430;-79
2021/11/20 10:05:31;;;;;;;9.15;5.43;;;9.90;99.90;;;;;;4979218;28;20364;-79
2021/11/20 10:08:02;;;;;;;8.02;5.50;;;9.90;99.90;;;;;;5014760;28;20364;-79
2021/11/20 10:10:36;;;;;;;6.20;4.82;;;10.00;99.90;;;;;;5014312;28;20022;-79
2021/11/20 10:13:20;;;;;;;8.73;5.63;;;10.00;99.90;;;;;;4996468;28;20030;-78
2021/11/20 10:15:59;;;;;;;9.60;5.30;;;10.00;99.90;;;;;;5014233;28;20026;-78
2021/11/20 10:18:53;;;;;;;7.55;4.70;;;10.10;99.90;;;;;;5013864;28;20115;-78
2021/11/20 10:21:38;;;;;;;5.60;4.78;;;10.10;99.90;;;;;;5013116;28;20041;-79
2021/11/20 10:24:28;;;;;;;7.45;5.22;;;10.10;99.90;;;;;;5014209;28;20460;-79
2021/11/20 10:27:24;;;;;;;6.63;5.07;;;10.10;99.90;;;;;;4996214;28;20030;-79
2021/11/20 10:30:08;;;;;;;12.30;8.57;;;10.00;99.90;;;;;;5014907;28;20394;-79
2021/11/20 10:32:57;;;;;;;4.45;4.00;;;10.10;99.90;;;;;;5016598;28;20038;-78
2021/11/20 10:35:33;;;;;;;5.70;4.15;;;10.00;99.90;;;;;;4977861;28;20503;-78
2021/11/20 10:38:11;;;;;;;4.95;4.45;;;10.10;99.90;;;;;;4995337;28;20073;-78
2021/11/20 10:40:58;;;;;;;7.55;5.80;;;10.00;99.90;;;;;;4994782;28;20133;-78
2021/11/20 10:43:42;;;;;;;9.35;6.65;;;10.00;99.90;;;;;;4995213;28;20141;-78
2021/11/20 10:46:34;;;;;;;8.00;6.03;;;10.00;99.90;;;;;;4977670;28;20109;-79
2021/11/20 10:49:26;;;;;;;15.07;7.82;;;10.00;99.90;;;;;;5013772;28;20479;-78
2021/11/20 10:52:09;;;;;;;4.97;4.17;;;10.00;99.90;;;;;;4995837;28;20031;-78
2021/11/20 10:54:47;;;;;;;;;;;10.00;99.90;;;;;;4995142;28;20105;-79
2021/11/20 10:57:51;;;;;;;9.85;6.70;;;10.10;99.90;;;;;;5002964;28;20359;-78
2021/11/20 11:00:55;;;;;;;38.53;26.25;;;10.10;99.90;;;;;;4994872;28;20514;-78
2021/11/20 11:03:30;;;;;;;17.25;11.63;;;10.00;99.90;;;;;;4994779;28;20929;-79
2021/11/20 11:06:19;;;;;;;4.55;4.15;;;10.00;99.90;;;;;;5012660;28;20028;-78
2021/11/20 11:08:51;;;;;;;8.35;5.40;;;10.00;99.90;;;;;;4999677;28;20044;-78
2021/11/20 11:11:32;;;;;;;5.50;4.97;;;10.00;99.90;;;;;;5011902;28;20025;-78
2021/11/20 11:14:03;;;;;;;6.95;4.90;;;9.90;99.90;;;;;;5012094;28;20419;-79
2021/11/20 11:16:53;;;;;;;5.07;4.57;;;9.90;99.90;;;;;;4992394;28;20022;-78
2021/11/20 11:19:43;;;;;;;5.68;4.43;;;9.90;99.90;;;;;;5012133;28;20026;-78
2021/11/20 11:22:29;;;;;;;4.38;3.47;;;9.80;99.90;;;;;;5013599;28;20506;-78
2021/11/20 11:25:10;;;;;;;3.72;3.17;;;9.80;99.90;;;;;;4996381;28;20049;-78
2021/11/20 11:27:38;;;;;;;4.03;3.33;;;9.80;99.90;;;;;;4996437;28;20422;-78
2021/11/20 11:30:22;;;;;;;5.15;4.65;;;9.70;99.90;;;;;;5014253;28;20029;-78
2021/11/20 11:32:48;;;;;;;6.00;4.32;;;9.60;99.90;;;;;;4996038;28;20026;-78
2021/11/20 11:35:26;;;;;;;4.95;4.25;;;9.60;99.90;;;;;;5014456;28;20088;-78
2021/11/20 11:38:18;;;;;;;4.10;3.50;;;9.60;99.90;;;;;;5013688;28;20378;-78
2021/11/20 11:40:53;;;;;;;5.68;5.10;;;9.50;99.90;;;;;;4995482;28;20046;-79
2021/11/20 11:43:25;;;;;;;4.88;3.58;;;9.50;99.90;;;;;;5013400;28;20025;-78
2021/11/20 11:46:20;;;;;;;3.90;3.55;;;9.50;99.90;;;;;;5012637;28;20117;-78
2021/11/20 11:48:59;;;;;;;4.85;4.45;;;9.50;99.90;;;;;;4991663;28;20041;-78
2021/11/20 11:51:49;;;;;;;6.90;6.30;;;9.50;99.90;;;;;;5013685;28;20060;-79
2021/11/20 11:54:21;;;;;;;21.02;18.00;;;9.60;99.90;;;;;;4996089;28;20442;-78
2021/11/20 11:57:07;;;;;;;33.85;27.17;;;9.50;99.90;;;;;;4995814;28;20398;-78
2021/11/20 11:59:36;;;;;;;12.25;9.88;;;9.50;99.90;;;;;;5013167;28;20026;-78
2021/11/20 12:02:14;;;;;;;21.90;11.52;;;9.50;99.90;;;;;;5010895;28;20036;-78
2021/11/20 12:04:49;;;;;;;21.35;12.25;;;9.50;99.90;;;;;;5011522;28;20502;-78
2021/11/20 12:07:36;;;;;;;31.40;21.05;;;9.30;99.90;;;;;;5009883;28;20018;-78
2021/11/20 12:10:23;;;;;;;33.35;22.92;;;9.30;99.90;;;;;;5009827;28;20049;-78
2021/11/20 12:12:59;;;;;;;17.40;13.30;;;9.10;99.90;;;;;;5010126;28;20018;-78
2021/11/20 12:15:48;;;;;;;12.65;9.43;;;9.10;99.90;;;;;;5011403;28;20033;-79
2021/11/20 12:18:54;;;;;;;19.92;12.35;;;9.00;99.90;;;;;;5008321;28;20084;-78
2021/11/20 12:21:31;;;;;;;13.57;11.10;;;9.00;99.90;;;;;;5006382;28;20483;-78
2021/11/20 12:24:24;;;;;;;10.68;8.55;;;8.90;99.90;;;;;;4999845;28;20025;-78
2021/11/20 12:26:52;;;;;;;42.58;27.95;;;8.90;99.90;;;;;;5001328;28;20030;-79
2021/11/20 12:29:22;;;;;;;62.25;47.30;;;8.80;99.90;;;;;;5007982;28;20466;-78
2021/11/20 12:31:56;;;;;;;23.98;18.33;;;8.90;99.90;;;;;;5008177;28;20386;-78
2021/11/20 12:34:43;;;;;;;57.13;38.40;;;8.80;99.90;;;;;;5009063;28;20045;-78
2021/11/20 12:37:32;;;;;;;132.50;64.53;;;8.80;99.90;;;;;;5008938;28;20471;-78
2021/11/20 12:40:12;;;;;;;37.65;25.17;;;8.80;99.90;;;;;;5001938;28;20069;-78
2021/11/20 12:42:59;;;;;;;47.88;34.00;;;8.70;99.90;;;;;;5009623;28;20104;-78
2021/11/20 12:45:40;;;;;;;34.42;21.90;;;8.70;99.90;;;;;;5008359;28;20022;-79
2021/11/20 12:48:32;;;;;;;49.42;24.55;;;8.70;99.90;;;;;;5010146;28;20017;-78
2021/11/20 12:51:21;;;;;;;34.22;19.42;;;8.70;99.90;;;;;;5009137;28;20061;-79
2021/11/20 12:53:50;;;;;;;29.23;19.55;;;8.70;99.90;;;;;;5007378;28;20053;-79
2021/11/20 12:56:31;;;;;;;58.33;29.05;;;8.70;99.90;;;;;;5006777;28;20045;-78
2021/11/20 12:59:01;;;;;;;71.05;27.48;;;8.60;99.90;;;;;;4998845;28;20100;-78
2021/11/20 13:01:44;;;;;;;19.05;12.20;;;8.70;99.90;;;;;;5008345;28;20041;-78
2021/11/20 13:04:40;;;;;;;33.97;20.35;;;8.60;99.90;;;;;;5008437;28;20056;-78
2021/11/20 13:07:12;;;;;;;83.15;36.08;;;8.70;99.90;;;;;;5008659;28;20386;-78
2021/11/20 13:10:09;;;;;;;29.05;15.70;;;8.60;99.90;;;;;;5009037;28;20494;-78